sensor_id;sensor_type;location;lat;lon;timestamp;P1;durP1;ratioP1;P2;durP2;ratioP2
58240;SDS011;45058;55.772;38.224;2022-07-17T00:01:57;22.17;;;15.65;;
58240;SDS011;45058;55.772;38.224;2022-07-17T00:04:22;19.52;;;14.00;;
58240;SDS011;45058;55.772;38.224;2022-07-17T00:06:49;22.65;;;15.52;;
58240;SDS011;45058;55.772;38.224;2022-07-17T00:09:15;19.42;;;14.48;;
58240;SDS011;45058;55.772;38.224;2022-07-17T00:11:41;20.98;;;14.48;;
58240;SDS011;45058;55.772;38.224;2022-07-17T00:14:07;22.98;;;15.93;;
58240;SDS011;45058;55.772;38.224;2022-07-17T00:16:33;19.52;;;14.82;;
58240;SDS011;45058;55.772;38.224;2022-07-17T00:18:59;25.08;;;16.17;;
58240;SDS011;45058;55.772;38.224;2022-07-17T00:21:25;27.40;;;16.33;;
58240;SDS011;45058;55.772;38.224;2022-07-17T00:23:51;23.95;;;17.70;;
58240;SDS011;45058;55.772;38.224;2022-07-17T00:26:17;34.88;;;19.00;;
58240;SDS011;45058;55.772;38.224;2022-07-17T00:28:43;23.92;;;16.92;;
58240;SDS011;45058;55.772;38.224;2022-07-17T00:31:09;23.00;;;16.00;;
58240;SDS011;45058;55.772;38.224;2022-07-17T00:33:35;26.85;;;16.17;;
58240;SDS011;45058;55.772;38.224;2022-07-17T00:36:01;26.10;;;15.68;;
58240;SDS011;45058;55.772;38.224;2022-07-17T00:38:27;23.70;;;17.10;;
58240;SDS011;45058;55.772;38.224;2022-07-17T00:40:54;27.35;;;16.95;;
58240;SDS011;45058;55.772;38.224;2022-07-17T00:43:22;26.02;;;18.75;;
58240;SDS011;45058;55.772;38.224;2022-07-17T00:45:58;30.63;;;16.77;;
58240;SDS011;45058;55.772;38.224;2022-07-17T00:48:25;22.40;;;16.08;;
58240;SDS011;45058;55.772;38.224;2022-07-17T00:50:52;23.05;;;17.60;;
58240;SDS011;45058;55.772;38.224;2022-07-17T00:53:18;28.38;;;18.00;;
58240;SDS011;45058;55.772;38.224;2022-07-17T00:55:45;25.70;;;17.42;;
58240;SDS011;45058;55.772;38.224;2022-07-17T00:58:20;24.08;;;18.48;;
58240;SDS011;45058;55.772;38.224;2022-07-17T01:00:49;23.92;;;17.13;;
58240;SDS011;45058;55.772;38.224;2022-07-17T01:03:16;23.63;;;17.98;;
58240;SDS011;45058;55.772;38.224;2022-07-17T01:05:42;27.55;;;19.02;;
58240;SDS011;45058;55.772;38.224;2022-07-17T01:08:08;23.70;;;18.10;;
58240;SDS011;45058;55.772;38.224;2022-07-17T01:10:34;22.13;;;18.77;;
58240;SDS011;45058;55.772;38.224;2022-07-17T01:13:01;28.50;;;19.23;;
58240;SDS011;45058;55.772;38.224;2022-07-17T01:15:27;25.48;;;18.38;;
58240;SDS011;45058;55.772;38.224;2022-07-17T01:17:54;23.80;;;18.95;;
58240;SDS011;45058;55.772;38.224;2022-07-17T01:20:20;25.40;;;18.08;;
58240;SDS011;45058;55.772;38.224;2022-07-17T01:22:47;19.60;;;17.15;;
58240;SDS011;45058;55.772;38.224;2022-07-17T01:25:14;21.60;;;17.30;;
58240;SDS011;45058;55.772;38.224;2022-07-17T01:27:42;27.13;;;18.00;;
58240;SDS011;45058;55.772;38.224;2022-07-17T01:30:08;21.58;;;15.75;;
58240;SDS011;45058;55.772;38.224;2022-07-17T01:32:35;22.80;;;16.75;;
58240;SDS011;45058;55.772;38.224;2022-07-17T01:35:02;24.65;;;17.73;;
58240;SDS011;45058;55.772;38.224;2022-07-17T01:37:29;29.52;;;16.90;;
58240;SDS011;45058;55.772;38.224;2022-07-17T01:39:56;24.25;;;15.75;;
58240;SDS011;45058;55.772;38.224;2022-07-17T01:42:22;21.73;;;16.65;;
58240;SDS011;45058;55.772;38.224;2022-07-17T01:44:50;26.50;;;16.08;;
58240;SDS011;45058;55.772;38.224;2022-07-17T01:47:16;25.92;;;16.63;;
58240;SDS011;45058;55.772;38.224;2022-07-17T01:49:43;22.05;;;16.17;;
58240;SDS011;45058;55.772;38.224;2022-07-17T01:52:10;27.02;;;17.52;;
58240;SDS011;45058;55.772;38.224;2022-07-17T01:54:36;25.08;;;16.15;;
58240;SDS011;45058;55.772;38.224;2022-07-17T01:57:02;23.13;;;15.13;;
58240;SDS011;45058;55.772;38.224;2022-07-17T01:59:28;24.15;;;15.73;;
58240;SDS011;45058;55.772;38.224;2022-07-17T02:01:54;23.95;;;14.52;;
58240;SDS011;45058;55.772;38.224;2022-07-17T02:04:20;27.90;;;16.83;;
58240;SDS011;45058;55.772;38.224;2022-07-17T02:06:46;24.83;;;17.17;;
58240;SDS011;45058;55.772;38.224;2022-07-17T02:09:12;24.15;;;15.95;;
58240;SDS011;45058;55.772;38.224;2022-07-17T02:11:38;24.48;;;14.63;;
58240;SDS011;45058;55.772;38.224;2022-07-17T02:14:04;22.15;;;14.93;;
58240;SDS011;45058;55.772;38.224;2022-07-17T02:16:30;24.95;;;15.10;;
58240;SDS011;45058;55.772;38.224;2022-07-17T02:18:56;25.38;;;14.68;;
58240;SDS011;45058;55.772;38.224;2022-07-17T02:21:23;20.08;;;13.77;;
58240;SDS011;45058;55.772;38.224;2022-07-17T02:23:49;22.98;;;13.93;;
58240;SDS011;45058;55.772;38.224;2022-07-17T02:26:15;23.80;;;12.93;;
58240;SDS011;45058;55.772;38.224;2022-07-17T02:28:41;20.05;;;12.82;;
58240;SDS011;45058;55.772;38.224;2022-07-17T02:31:08;18.92;;;13.20;;
58240;SDS011;45058;55.772;38.224;2022-07-17T02:33:34;24.83;;;12.57;;
58240;SDS011;45058;55.772;38.224;2022-07-17T02:36:00;22.20;;;13.38;;
58240;SDS011;45058;55.772;38.224;2022-07-17T02:38:27;18.73;;;12.75;;
58240;SDS011;45058;55.772;38.224;2022-07-17T02:40:53;21.55;;;12.45;;
58240;SDS011;45058;55.772;38.224;2022-07-17T02:43:19;17.27;;;11.43;;
58240;SDS011;45058;55.772;38.224;2022-07-17T02:45:45;17.77;;;11.38;;
58240;SDS011;45058;55.772;38.224;2022-07-17T02:48:11;23.20;;;12.23;;
58240;SDS011;45058;55.772;38.224;2022-07-17T02:50:37;23.88;;;12.70;;
58240;SDS011;45058;55.772;38.224;2022-07-17T02:53:03;24.00;;;12.82;;
58240;SDS011;45058;55.772;38.224;2022-07-17T02:55:29;20.08;;;12.10;;
58240;SDS011;45058;55.772;38.224;2022-07-17T02:57:55;15.48;;;11.70;;
58240;SDS011;45058;55.772;38.224;2022-07-17T03:00:21;15.60;;;10.73;;
58240;SDS011;45058;55.772;38.224;2022-07-17T03:02:47;16.73;;;10.55;;
58240;SDS011;45058;55.772;38.224;2022-07-17T03:05:13;15.65;;;11.32;;
58240;SDS011;45058;55.772;38.224;2022-07-17T03:07:41;17.75;;;11.07;;
58240;SDS011;45058;55.772;38.224;2022-07-17T03:10:12;21.75;;;10.73;;
58240;SDS011;45058;55.772;38.224;2022-07-17T03:12:38;20.77;;;11.00;;
58240;SDS011;45058;55.772;38.224;2022-07-17T03:15:05;21.60;;;10.27;;
58240;SDS011;45058;55.772;38.224;2022-07-17T03:17:31;22.48;;;11.35;;
58240;SDS011;45058;55.772;38.224;2022-07-17T03:19:57;14.50;;;10.43;;
58240;SDS011;45058;55.772;38.224;2022-07-17T03:22:23;17.88;;;10.52;;
58240;SDS011;45058;55.772;38.224;2022-07-17T03:24:50;14.60;;;10.02;;
58240;SDS011;45058;55.772;38.224;2022-07-17T03:27:16;16.52;;;10.40;;
58240;SDS011;45058;55.772;38.224;2022-07-17T03:29:42;14.48;;;10.25;;
58240;SDS011;45058;55.772;38.224;2022-07-17T03:32:09;17.00;;;11.10;;
58240;SDS011;45058;55.772;38.224;2022-07-17T03:34:36;19.25;;;10.20;;
58240;SDS011;45058;55.772;38.224;2022-07-17T03:37:03;23.65;;;10.60;;
58240;SDS011;45058;55.772;38.224;2022-07-17T03:39:29;15.55;;;9.38;;
58240;SDS011;45058;55.772;38.224;2022-07-17T03:41:56;20.67;;;11.25;;
58240;SDS011;45058;55.772;38.224;2022-07-17T03:44:22;15.57;;;10.40;;
58240;SDS011;45058;55.772;38.224;2022-07-17T03:46:48;21.13;;;11.38;;
58240;SDS011;45058;55.772;38.224;2022-07-17T03:49:14;21.33;;;10.82;;
58240;SDS011;45058;55.772;38.224;2022-07-17T03:51:41;19.35;;;10.45;;
58240;SDS011;45058;55.772;38.224;2022-07-17T03:54:07;20.58;;;10.73;;
58240;SDS011;45058;55.772;38.224;2022-07-17T03:56:33;20.63;;;10.98;;
58240;SDS011;45058;55.772;38.224;2022-07-17T03:58:59;17.00;;;13.35;;
58240;SDS011;45058;55.772;38.224;2022-07-17T04:01:25;22.67;;;14.15;;
58240;SDS011;45058;55.772;38.224;2022-07-17T04:03:51;23.30;;;12.90;;
58240;SDS011;45058;55.772;38.224;2022-07-17T04:06:17;25.98;;;13.15;;
58240;SDS011;45058;55.772;38.224;2022-07-17T04:08:43;17.98;;;11.27;;
58240;SDS011;45058;55.772;38.224;2022-07-17T04:11:09;19.98;;;11.15;;
58240;SDS011;45058;55.772;38.224;2022-07-17T04:13:35;27.40;;;11.50;;
58240;SDS011;45058;55.772;38.224;2022-07-17T04:16:01;15.85;;;10.32;;
58240;SDS011;45058;55.772;38.224;2022-07-17T04:18:28;20.65;;;11.30;;
58240;SDS011;45058;55.772;38.224;2022-07-17T04:20:56;16.77;;;10.90;;
58240;SDS011;45058;55.772;38.224;2022-07-17T04:23:26;21.77;;;11.27;;
58240;SDS011;45058;55.772;38.224;2022-07-17T04:25:53;21.17;;;10.32;;
58240;SDS011;45058;55.772;38.224;2022-07-17T04:28:19;13.50;;;10.70;;
58240;SDS011;45058;55.772;38.224;2022-07-17T04:30:45;17.08;;;10.50;;
58240;SDS011;45058;55.772;38.224;2022-07-17T04:33:11;23.58;;;11.15;;
58240;SDS011;45058;55.772;38.224;2022-07-17T04:35:37;18.20;;;11.90;;
58240;SDS011;45058;55.772;38.224;2022-07-17T04:38:04;23.23;;;11.75;;
58240;SDS011;45058;55.772;38.224;2022-07-17T04:40:32;19.42;;;11.75;;
58240;SDS011;45058;55.772;38.224;2022-07-17T04:42:58;19.17;;;11.60;;
58240;SDS011;45058;55.772;38.224;2022-07-17T04:45:25;16.10;;;11.98;;
58240;SDS011;45058;55.772;38.224;2022-07-17T04:47:51;23.88;;;12.38;;
58240;SDS011;45058;55.772;38.224;2022-07-17T04:50:17;23.98;;;11.85;;
58240;SDS011;45058;55.772;38.224;2022-07-17T04:52:43;17.88;;;11.93;;
58240;SDS011;45058;55.772;38.224;2022-07-17T04:55:09;19.02;;;11.65;;
58240;SDS011;45058;55.772;38.224;2022-07-17T04:57:35;19.98;;;12.20;;
58240;SDS011;45058;55.772;38.224;2022-07-17T05:00:05;19.08;;;13.27;;
58240;SDS011;45058;55.772;38.224;2022-07-17T05:02:33;19.27;;;13.15;;
58240;SDS011;45058;55.772;38.224;2022-07-17T05:04:59;21.58;;;12.02;;
58240;SDS011;45058;55.772;38.224;2022-07-17T05:07:25;17.13;;;11.88;;
58240;SDS011;45058;55.772;38.224;2022-07-17T05:09:51;23.48;;;12.43;;
58240;SDS011;45058;55.772;38.224;2022-07-17T05:12:17;18.00;;;10.98;;
58240;SDS011;45058;55.772;38.224;2022-07-17T05:14:43;20.88;;;11.60;;
58240;SDS011;45058;55.772;38.224;2022-07-17T05:17:09;21.33;;;10.50;;
58240;SDS011;45058;55.772;38.224;2022-07-17T05:19:36;17.50;;;10.70;;
58240;SDS011;45058;55.772;38.224;2022-07-17T05:22:03;17.42;;;9.68;;
58240;SDS011;45058;55.772;38.224;2022-07-17T05:24:29;17.42;;;9.88;;
58240;SDS011;45058;55.772;38.224;2022-07-17T05:26:55;21.63;;;9.98;;
58240;SDS011;45058;55.772;38.224;2022-07-17T05:29:22;16.48;;;8.60;;
58240;SDS011;45058;55.772;38.224;2022-07-17T05:31:48;16.70;;;9.70;;
58240;SDS011;45058;55.772;38.224;2022-07-17T05:34:14;18.25;;;10.43;;
58240;SDS011;45058;55.772;38.224;2022-07-17T05:36:40;17.35;;;9.63;;
58240;SDS011;45058;55.772;38.224;2022-07-17T05:39:06;18.73;;;9.38;;
58240;SDS011;45058;55.772;38.224;2022-07-17T05:41:34;18.35;;;9.13;;
58240;SDS011;45058;55.772;38.224;2022-07-17T05:44:00;17.05;;;8.98;;
58240;SDS011;45058;55.772;38.224;2022-07-17T05:46:26;16.20;;;9.13;;
58240;SDS011;45058;55.772;38.224;2022-07-17T05:48:52;12.52;;;8.70;;
58240;SDS011;45058;55.772;38.224;2022-07-17T05:51:18;15.82;;;8.25;;
58240;SDS011;45058;55.772;38.224;2022-07-17T05:53:44;17.70;;;8.55;;
58240;SDS011;45058;55.772;38.224;2022-07-17T05:56:10;21.50;;;9.38;;
58240;SDS011;45058;55.772;38.224;2022-07-17T05:58:36;16.50;;;8.45;;
58240;SDS011;45058;55.772;38.224;2022-07-17T06:01:02;12.98;;;7.75;;
58240;SDS011;45058;55.772;38.224;2022-07-17T06:03:28;12.93;;;5.03;;
58240;SDS011;45058;55.772;38.224;2022-07-17T06:05:54;11.88;;;5.72;;
58240;SDS011;45058;55.772;38.224;2022-07-17T06:08:21;11.85;;;5.45;;
58240;SDS011;45058;55.772;38.224;2022-07-17T06:10:47;14.27;;;4.25;;
58240;SDS011;45058;55.772;38.224;2022-07-17T06:13:13;5.63;;;3.70;;
58240;SDS011;45058;55.772;38.224;2022-07-17T06:15:39;10.30;;;3.83;;
58240;SDS011;45058;55.772;38.224;2022-07-17T06:18:05;7.82;;;3.83;;
58240;SDS011;45058;55.772;38.224;2022-07-17T06:20:31;12.85;;;4.32;;
58240;SDS011;45058;55.772;38.224;2022-07-17T06:22:57;6.93;;;3.70;;
58240;SDS011;45058;55.772;38.224;2022-07-17T06:25:23;10.15;;;4.25;;
58240;SDS011;45058;55.772;38.224;2022-07-17T06:27:50;13.98;;;4.60;;
58240;SDS011;45058;55.772;38.224;2022-07-17T06:30:16;17.00;;;5.30;;
58240;SDS011;45058;55.772;38.224;2022-07-17T06:32:42;19.13;;;5.00;;
58240;SDS011;45058;55.772;38.224;2022-07-17T06:35:09;10.63;;;4.78;;
58240;SDS011;45058;55.772;38.224;2022-07-17T06:37:35;12.63;;;5.18;;
58240;SDS011;45058;55.772;38.224;2022-07-17T06:40:01;10.80;;;5.25;;
58240;SDS011;45058;55.772;38.224;2022-07-17T06:42:28;15.98;;;5.38;;
58240;SDS011;45058;55.772;38.224;2022-07-17T06:44:54;11.90;;;5.28;;
58240;SDS011;45058;55.772;38.224;2022-07-17T06:47:20;10.35;;;4.97;;
58240;SDS011;45058;55.772;38.224;2022-07-17T06:49:47;12.93;;;5.38;;
58240;SDS011;45058;55.772;38.224;2022-07-17T06:52:13;17.75;;;6.45;;
58240;SDS011;45058;55.772;38.224;2022-07-17T06:54:39;10.20;;;5.10;;
58240;SDS011;45058;55.772;38.224;2022-07-17T06:57:05;9.75;;;5.13;;
58240;SDS011;45058;55.772;38.224;2022-07-17T06:59:30;11.52;;;4.15;;
58240;SDS011;45058;55.772;38.224;2022-07-17T07:01:56;14.90;;;4.32;;
58240;SDS011;45058;55.772;38.224;2022-07-17T07:04:22;8.45;;;3.53;;
58240;SDS011;45058;55.772;38.224;2022-07-17T07:06:48;8.85;;;3.65;;
58240;SDS011;45058;55.772;38.224;2022-07-17T07:09:14;10.55;;;3.70;;
58240;SDS011;45058;55.772;38.224;2022-07-17T07:11:40;8.77;;;3.55;;
58240;SDS011;45058;55.772;38.224;2022-07-17T07:14:07;8.60;;;3.50;;
58240;SDS011;45058;55.772;38.224;2022-07-17T07:16:33;12.00;;;4.00;;
58240;SDS011;45058;55.772;38.224;2022-07-17T07:19:00;9.27;;;3.65;;
58240;SDS011;45058;55.772;38.224;2022-07-17T07:21:26;6.95;;;3.10;;
58240;SDS011;45058;55.772;38.224;2022-07-17T07:23:53;5.65;;;2.58;;
58240;SDS011;45058;55.772;38.224;2022-07-17T07:26:19;10.98;;;3.20;;
58240;SDS011;45058;55.772;38.224;2022-07-17T07:28:45;5.55;;;2.20;;
58240;SDS011;45058;55.772;38.224;2022-07-17T07:31:11;6.05;;;2.47;;
58240;SDS011;45058;55.772;38.224;2022-07-17T07:33:38;7.70;;;2.65;;
58240;SDS011;45058;55.772;38.224;2022-07-17T07:36:04;6.97;;;2.47;;
58240;SDS011;45058;55.772;38.224;2022-07-17T07:38:30;5.38;;;2.35;;
58240;SDS011;45058;55.772;38.224;2022-07-17T07:40:57;4.25;;;2.30;;
58240;SDS011;45058;55.772;38.224;2022-07-17T07:43:23;6.00;;;1.80;;
58240;SDS011;45058;55.772;38.224;2022-07-17T07:45:49;2.70;;;1.40;;
58240;SDS011;45058;55.772;38.224;2022-07-17T07:48:15;3.95;;;1.90;;
58240;SDS011;45058;55.772;38.224;2022-07-17T07:50:42;7.97;;;2.15;;
58240;SDS011;45058;55.772;38.224;2022-07-17T07:53:08;4.70;;;2.38;;
58240;SDS011;45058;55.772;38.224;2022-07-17T07:55:34;8.93;;;1.52;;
58240;SDS011;45058;55.772;38.224;2022-07-17T07:58:04;7.97;;;1.60;;
58240;SDS011;45058;55.772;38.224;2022-07-17T08:00:34;5.75;;;1.60;;
58240;SDS011;45058;55.772;38.224;2022-07-17T08:03:00;10.30;;;1.98;;
58240;SDS011;45058;55.772;38.224;2022-07-17T08:05:27;4.85;;;1.48;;
58240;SDS011;45058;55.772;38.224;2022-07-17T08:07:53;4.53;;;1.63;;
58240;SDS011;45058;55.772;38.224;2022-07-17T08:10:19;3.17;;;1.98;;
58240;SDS011;45058;55.772;38.224;2022-07-17T08:12:46;2.88;;;1.55;;
58240;SDS011;45058;55.772;38.224;2022-07-17T08:15:12;7.90;;;1.58;;
58240;SDS011;45058;55.772;38.224;2022-07-17T08:17:42;5.90;;;1.90;;
58240;SDS011;45058;55.772;38.224;2022-07-17T08:20:09;5.07;;;2.13;;
58240;SDS011;45058;55.772;38.224;2022-07-17T08:22:35;5.53;;;1.70;;
58240;SDS011;45058;55.772;38.224;2022-07-17T08:25:02;7.00;;;1.88;;
58240;SDS011;45058;55.772;38.224;2022-07-17T08:27:34;9.20;;;1.30;;
58240;SDS011;45058;55.772;38.224;2022-07-17T08:30:03;3.45;;;1.13;;
58240;SDS011;45058;55.772;38.224;2022-07-17T08:32:30;10.15;;;1.55;;
58240;SDS011;45058;55.772;38.224;2022-07-17T08:34:56;92.00;;;75.60;;
58240;SDS011;45058;55.772;38.224;2022-07-17T08:37:22;5.97;;;1.42;;
58240;SDS011;45058;55.772;38.224;2022-07-17T08:39:50;4.38;;;1.40;;
58240;SDS011;45058;55.772;38.224;2022-07-17T08:42:19;4.45;;;1.00;;
58240;SDS011;45058;55.772;38.224;2022-07-17T08:44:45;4.10;;;0.93;;
58240;SDS011;45058;55.772;38.224;2022-07-17T08:47:11;4.40;;;1.38;;
58240;SDS011;45058;55.772;38.224;2022-07-17T08:49:41;6.65;;;1.33;;
58240;SDS011;45058;55.772;38.224;2022-07-17T08:52:10;4.65;;;1.60;;
58240;SDS011;45058;55.772;38.224;2022-07-17T08:54:36;5.55;;;1.48;;
58240;SDS011;45058;55.772;38.224;2022-07-17T08:57:03;3.42;;;1.52;;
58240;SDS011;45058;55.772;38.224;2022-07-17T08:59:29;3.53;;;1.13;;
58240;SDS011;45058;55.772;38.224;2022-07-17T09:01:56;1.95;;;1.13;;
58240;SDS011;45058;55.772;38.224;2022-07-17T09:04:24;3.75;;;1.42;;
58240;SDS011;45058;55.772;38.224;2022-07-17T09:07:00;4.80;;;1.63;;
58240;SDS011;45058;55.772;38.224;2022-07-17T09:09:27;4.43;;;1.30;;
58240;SDS011;45058;55.772;38.224;2022-07-17T09:11:54;3.83;;;1.60;;
58240;SDS011;45058;55.772;38.224;2022-07-17T09:14:20;4.43;;;1.50;;
58240;SDS011;45058;55.772;38.224;2022-07-17T09:16:51;7.30;;;2.63;;
58240;SDS011;45058;55.772;38.224;2022-07-17T09:19:29;5.97;;;1.67;;
58240;SDS011;45058;55.772;38.224;2022-07-17T09:24:39;3.03;;;1.73;;
58240;SDS011;45058;55.772;38.224;2022-07-17T09:29:50;4.55;;;1.30;;
58240;SDS011;45058;55.772;38.224;2022-07-17T09:32:22;6.38;;;1.23;;
58240;SDS011;45058;55.772;38.224;2022-07-17T09:34:53;3.38;;;1.30;;
58240;SDS011;45058;55.772;38.224;2022-07-17T09:37:24;4.20;;;1.00;;
58240;SDS011;45058;55.772;38.224;2022-07-17T09:39:51;1.83;;;1.00;;
58240;SDS011;45058;55.772;38.224;2022-07-17T09:45:05;3.08;;;0.88;;
58240;SDS011;45058;55.772;38.224;2022-07-17T09:47:33;3.95;;;1.02;;
58240;SDS011;45058;55.772;38.224;2022-07-17T09:50:00;2.05;;;1.00;;
58240;SDS011;45058;55.772;38.224;2022-07-17T09:52:29;4.00;;;1.77;;
58240;SDS011;45058;55.772;38.224;2022-07-17T09:54:57;3.67;;;1.50;;
58240;SDS011;45058;55.772;38.224;2022-07-17T09:57:27;3.42;;;1.50;;
58240;SDS011;45058;55.772;38.224;2022-07-17T09:59:54;2.38;;;1.10;;
58240;SDS011;45058;55.772;38.224;2022-07-17T10:02:21;2.10;;;1.00;;
58240;SDS011;45058;55.772;38.224;2022-07-17T10:04:48;3.47;;;1.50;;
58240;SDS011;45058;55.772;38.224;2022-07-17T10:07:14;5.20;;;1.55;;
58240;SDS011;45058;55.772;38.224;2022-07-17T10:09:40;3.10;;;1.48;;
58240;SDS011;45058;55.772;38.224;2022-07-17T10:12:07;2.40;;;1.27;;
58240;SDS011;45058;55.772;38.224;2022-07-17T10:14:36;2.78;;;1.67;;
58240;SDS011;45058;55.772;38.224;2022-07-17T10:17:10;9.50;;;2.90;;
58240;SDS011;45058;55.772;38.224;2022-07-17T10:19:47;4.22;;;1.38;;
58240;SDS011;45058;55.772;38.224;2022-07-17T10:22:15;2.50;;;1.40;;
58240;SDS011;45058;55.772;38.224;2022-07-17T10:24:49;2.30;;;1.73;;
58240;SDS011;45058;55.772;38.224;2022-07-17T10:29:59;4.18;;;2.17;;
58240;SDS011;45058;55.772;38.224;2022-07-17T10:32:32;5.15;;;2.08;;
58240;SDS011;45058;55.772;38.224;2022-07-17T10:35:06;4.13;;;1.50;;
58240;SDS011;45058;55.772;38.224;2022-07-17T10:42:42;5.80;;;2.30;;
58240;SDS011;45058;55.772;38.224;2022-07-17T10:45:10;4.03;;;2.20;;
58240;SDS011;45058;55.772;38.224;2022-07-17T10:47:54;4.20;;;2.03;;
58240;SDS011;45058;55.772;38.224;2022-07-17T10:50:32;9.35;;;2.80;;
58240;SDS011;45058;55.772;38.224;2022-07-17T10:53:02;4.95;;;2.05;;
58240;SDS011;45058;55.772;38.224;2022-07-17T10:55:30;3.45;;;1.60;;
58240;SDS011;45058;55.772;38.224;2022-07-17T10:57:57;6.82;;;1.90;;
58240;SDS011;45058;55.772;38.224;2022-07-17T11:00:23;9.18;;;2.55;;
58240;SDS011;45058;55.772;38.224;2022-07-17T11:02:50;5.28;;;1.85;;
58240;SDS011;45058;55.772;38.224;2022-07-17T11:05:16;4.50;;;1.45;;
58240;SDS011;45058;55.772;38.224;2022-07-17T11:07:52;12.70;;;3.17;;
58240;SDS011;45058;55.772;38.224;2022-07-17T11:10:21;3.10;;;1.35;;
58240;SDS011;45058;55.772;38.224;2022-07-17T11:12:48;3.35;;;1.42;;
58240;SDS011;45058;55.772;38.224;2022-07-17T11:15:15;4.30;;;1.30;;
58240;SDS011;45058;55.772;38.224;2022-07-17T11:17:45;2.15;;;1.00;;
58240;SDS011;45058;55.772;38.224;2022-07-17T11:20:12;3.95;;;0.80;;
58240;SDS011;45058;55.772;38.224;2022-07-17T11:22:38;2.33;;;1.00;;
58240;SDS011;45058;55.772;38.224;2022-07-17T11:25:05;5.20;;;1.08;;
58240;SDS011;45058;55.772;38.224;2022-07-17T11:27:31;2.58;;;1.00;;
58240;SDS011;45058;55.772;38.224;2022-07-17T11:29:58;4.57;;;1.02;;
58240;SDS011;45058;55.772;38.224;2022-07-17T11:32:35;2.63;;;1.17;;
58240;SDS011;45058;55.772;38.224;2022-07-17T11:35:13;5.05;;;1.77;;
58240;SDS011;45058;55.772;38.224;2022-07-17T11:37:48;4.05;;;1.13;;
58240;SDS011;45058;55.772;38.224;2022-07-17T11:40:15;4.00;;;1.30;;
58240;SDS011;45058;55.772;38.224;2022-07-17T11:42:41;4.97;;;1.70;;
58240;SDS011;45058;55.772;38.224;2022-07-17T11:45:07;3.63;;;2.13;;
58240;SDS011;45058;55.772;38.224;2022-07-17T11:47:34;3.58;;;1.40;;
58240;SDS011;45058;55.772;38.224;2022-07-17T11:50:11;6.82;;;1.77;;
58240;SDS011;45058;55.772;38.224;2022-07-17T11:52:39;4.63;;;1.20;;
58240;SDS011;45058;55.772;38.224;2022-07-17T11:55:07;8.43;;;1.05;;
58240;SDS011;45058;55.772;38.224;2022-07-17T11:57:41;4.80;;;1.23;;
58240;SDS011;45058;55.772;38.224;2022-07-17T12:00:08;4.15;;;1.05;;
58240;SDS011;45058;55.772;38.224;2022-07-17T12:02:36;8.30;;;1.45;;
58240;SDS011;45058;55.772;38.224;2022-07-17T12:05:02;4.00;;;1.15;;
58240;SDS011;45058;55.772;38.224;2022-07-17T12:07:41;4.22;;;1.23;;
58240;SDS011;45058;55.772;38.224;2022-07-17T12:10:18;1.83;;;1.13;;
58240;SDS011;45058;55.772;38.224;2022-07-17T12:12:57;7.63;;;1.45;;
58240;SDS011;45058;55.772;38.224;2022-07-17T12:15:35;5.47;;;1.10;;
58240;SDS011;45058;55.772;38.224;2022-07-17T12:18:02;6.10;;;2.20;;
58240;SDS011;45058;55.772;38.224;2022-07-17T12:20:41;6.95;;;2.30;;
58240;SDS011;45058;55.772;38.224;2022-07-17T12:23:08;5.93;;;1.48;;
58240;SDS011;45058;55.772;38.224;2022-07-17T12:25:35;4.97;;;1.33;;
58240;SDS011;45058;55.772;38.224;2022-07-17T12:28:01;4.68;;;1.85;;
58240;SDS011;45058;55.772;38.224;2022-07-17T12:30:27;5.72;;;1.50;;
58240;SDS011;45058;55.772;38.224;2022-07-17T12:32:54;3.35;;;1.40;;
58240;SDS011;45058;55.772;38.224;2022-07-17T12:35:20;2.90;;;1.23;;
58240;SDS011;45058;55.772;38.224;2022-07-17T12:37:46;2.22;;;1.30;;
58240;SDS011;45058;55.772;38.224;2022-07-17T12:40:12;2.53;;;1.08;;
58240;SDS011;45058;55.772;38.224;2022-07-17T12:42:38;5.05;;;1.42;;
58240;SDS011;45058;55.772;38.224;2022-07-17T12:45:04;6.95;;;1.58;;
58240;SDS011;45058;55.772;38.224;2022-07-17T12:47:30;8.18;;;1.40;;
58240;SDS011;45058;55.772;38.224;2022-07-17T12:49:56;2.38;;;1.30;;
58240;SDS011;45058;55.772;38.224;2022-07-17T12:52:22;7.28;;;1.50;;
58240;SDS011;45058;55.772;38.224;2022-07-17T12:54:48;3.95;;;1.10;;
58240;SDS011;45058;55.772;38.224;2022-07-17T12:57:14;5.68;;;1.85;;
58240;SDS011;45058;55.772;38.224;2022-07-17T12:59:40;6.38;;;2.05;;
58240;SDS011;45058;55.772;38.224;2022-07-17T13:02:06;4.68;;;1.75;;
58240;SDS011;45058;55.772;38.224;2022-07-17T13:04:32;4.53;;;1.80;;
58240;SDS011;45058;55.772;38.224;2022-07-17T13:06:58;8.25;;;2.35;;
58240;SDS011;45058;55.772;38.224;2022-07-17T13:09:24;5.68;;;2.47;;
58240;SDS011;45058;55.772;38.224;2022-07-17T13:11:50;5.40;;;1.75;;
58240;SDS011;45058;55.772;38.224;2022-07-17T13:14:17;3.75;;;1.75;;
58240;SDS011;45058;55.772;38.224;2022-07-17T13:16:43;9.05;;;2.25;;
58240;SDS011;45058;55.772;38.224;2022-07-17T13:19:09;5.47;;;2.08;;
58240;SDS011;45058;55.772;38.224;2022-07-17T13:21:36;8.55;;;1.67;;
58240;SDS011;45058;55.772;38.224;2022-07-17T13:24:03;4.75;;;2.08;;
58240;SDS011;45058;55.772;38.224;2022-07-17T13:26:30;8.05;;;1.42;;
58240;SDS011;45058;55.772;38.224;2022-07-17T13:28:56;3.67;;;1.63;;
58240;SDS011;45058;55.772;38.224;2022-07-17T13:31:22;4.07;;;1.50;;
58240;SDS011;45058;55.772;38.224;2022-07-17T13:33:49;4.28;;;1.48;;
58240;SDS011;45058;55.772;38.224;2022-07-17T13:36:15;4.40;;;1.75;;
58240;SDS011;45058;55.772;38.224;2022-07-17T13:38:41;2.72;;;1.40;;
58240;SDS011;45058;55.772;38.224;2022-07-17T13:41:08;3.88;;;1.70;;
58240;SDS011;45058;55.772;38.224;2022-07-17T13:43:34;7.03;;;1.90;;
58240;SDS011;45058;55.772;38.224;2022-07-17T13:46:00;5.07;;;2.03;;
58240;SDS011;45058;55.772;38.224;2022-07-17T13:48:26;16.50;;;3.47;;
58240;SDS011;45058;55.772;38.224;2022-07-17T13:50:52;9.07;;;2.17;;
58240;SDS011;45058;55.772;38.224;2022-07-17T13:53:18;24.75;;;5.22;;
58240;SDS011;45058;55.772;38.224;2022-07-17T13:55:44;5.60;;;1.60;;
58240;SDS011;45058;55.772;38.224;2022-07-17T13:58:10;5.05;;;1.88;;
58240;SDS011;45058;55.772;38.224;2022-07-17T14:00:36;24.80;;;5.28;;
58240;SDS011;45058;55.772;38.224;2022-07-17T14:03:02;16.05;;;6.05;;
58240;SDS011;45058;55.772;38.224;2022-07-17T14:05:29;12.00;;;2.58;;
58240;SDS011;45058;55.772;38.224;2022-07-17T14:07:55;8.15;;;1.48;;
58240;SDS011;45058;55.772;38.224;2022-07-17T14:10:21;3.08;;;1.50;;
58240;SDS011;45058;55.772;38.224;2022-07-17T14:12:47;4.70;;;1.50;;
58240;SDS011;45058;55.772;38.224;2022-07-17T14:15:13;10.52;;;8.18;;
58240;SDS011;45058;55.772;38.224;2022-07-17T14:17:39;15.35;;;10.45;;
58240;SDS011;45058;55.772;38.224;2022-07-17T14:20:05;8.82;;;6.88;;
58240;SDS011;45058;55.772;38.224;2022-07-17T14:22:32;7.53;;;5.50;;
58240;SDS011;45058;55.772;38.224;2022-07-17T14:24:57;4.85;;;2.33;;
58240;SDS011;45058;55.772;38.224;2022-07-17T14:27:23;2.67;;;1.88;;
58240;SDS011;45058;55.772;38.224;2022-07-17T14:29:49;6.32;;;1.77;;
58240;SDS011;45058;55.772;38.224;2022-07-17T14:32:15;6.32;;;2.17;;
58240;SDS011;45058;55.772;38.224;2022-07-17T14:34:42;5.57;;;2.00;;
58240;SDS011;45058;55.772;38.224;2022-07-17T14:37:08;5.85;;;1.95;;
58240;SDS011;45058;55.772;38.224;2022-07-17T14:39:34;12.75;;;3.75;;